Terminal Aerodrome Forecast
Issued by NWS

Home | Current Version | Previous Version | Graphics & Text | Print | Product List | Glossary On
Versions: 1 2 3 4 5 6 7 8 9 10 11 12
390
FTUS42 KMHX 251720
TAFISO
TAF
KISO 251720Z 2518/2618 21014G22KT P6SM SCT130
     FM252000 22015G26KT P6SM VCTS SCT030CB BKN100
     FM260100 30012G18KT P6SM SCT250
      AMD LTD TO CLD VIS AND WIND=

USA.gov is the U.S. government's official web portal to all federal, state and local government web resources and services.